createdAt,value
2022-10-11T00:00:50.263Z,7.05
2022-10-11T00:10:57.771Z,6.51
2022-10-11T00:21:05.341Z,6.9
2022-10-11T00:31:12.781Z,7.32
2022-10-11T00:41:20.276Z,6.68
2022-10-11T00:51:27.804Z,7.15
2022-10-11T01:01:35.178Z,7.94
2022-10-11T01:11:42.557Z,8.92
2022-10-11T01:21:49.985Z,7.41
2022-10-11T01:31:57.434Z,7.34
2022-10-11T01:42:04.826Z,6.62
2022-10-11T01:52:12.344Z,8.41
2022-10-11T02:02:19.941Z,9.1
2022-10-11T02:12:27.383Z,10.99
2022-10-11T02:22:34.705Z,9.6
2022-10-11T02:32:42.099Z,10.63
2022-10-11T02:42:49.564Z,13.89
2022-10-11T02:53:09.012Z,15.52
2022-10-11T03:03:13.882Z,15.79
2022-10-11T03:13:13.820Z,16.55
2022-10-11T03:23:18.355Z,18.3
2022-10-11T03:33:25.799Z,16
2022-10-11T03:43:35.072Z,16.55
2022-10-11T03:53:42.553Z,17.7
2022-10-11T04:03:50.102Z,17.38
2022-10-11T04:13:57.538Z,14.48
2022-10-11T04:24:05.002Z,13.12
2022-10-11T04:34:12.481Z,11.94
2022-10-11T04:44:19.955Z,13.6
2022-10-11T04:54:27.421Z,13.49
2022-10-11T05:04:34.909Z,13.61
2022-10-11T05:14:43.582Z,12.96
2022-10-11T05:24:52.066Z,13.12
2022-10-11T05:35:02.716Z,13.79
2022-10-11T05:45:01.443Z,17.23
2022-10-11T05:55:10.130Z,19.14
2022-10-11T06:05:18.590Z,17.78
2022-10-11T06:15:26.052Z,16.68
2022-10-11T06:25:34.614Z,16.87
2022-10-11T06:35:42.069Z,16.54
2022-10-11T06:45:49.890Z,17.15
2022-10-11T06:55:59.539Z,16.75
2022-10-11T07:06:05.782Z,16.29
2022-10-11T07:16:12.782Z,16.07
2022-10-11T07:26:19.790Z,13.96
2022-10-11T07:36:31.752Z,11.6
2022-10-11T07:46:29.990Z,11.09
2022-10-11T07:56:40.617Z,11.57
2022-10-11T08:06:41.610Z,8.93
2022-10-11T08:16:42.003Z,9.17
2022-10-11T08:26:40.840Z,8.98
2022-10-11T08:36:48.413Z,8.94
2022-10-11T08:46:59.595Z,9.08
2022-10-11T08:57:02.718Z,11.39
2022-10-11T09:07:09.384Z,7.48
2022-10-11T09:17:16.899Z,7.46
2022-10-11T09:27:38.060Z,9.94
2022-10-11T09:37:30.847Z,8.93
2022-10-11T09:47:39.845Z,9.67
2022-10-11T09:57:47.338Z,8.58
2022-10-11T10:07:55.930Z,8.51
2022-10-11T10:18:03.586Z,7.25
2022-10-11T10:28:16.290Z,6.44
2022-10-11T10:38:17.262Z,5.74
2022-10-11T10:48:15.725Z,5.32
2022-10-11T10:58:21.862Z,4.79
2022-10-11T11:08:30.130Z,4.22
2022-10-11T11:18:39.928Z,3.89
2022-10-11T11:28:47.403Z,3.57
2022-10-11T11:38:54.734Z,3.22
2022-10-11T11:49:02.970Z,3.96
2022-10-11T11:59:11.711Z,3.21
2022-10-11T12:09:19.425Z,3.41
2022-10-11T12:19:30.889Z,3.32
2022-10-11T12:29:31.571Z,3.67
2022-10-11T12:39:37.993Z,3.6
2022-10-11T12:49:48.062Z,3.18
2022-10-11T12:59:45.667Z,2.77
2022-10-11T13:09:55.606Z,3.5
2022-10-11T13:20:04.570Z,3.77
2022-10-11T13:30:15.734Z,4.25
2022-10-11T13:40:13.182Z,3.97
2022-10-11T13:50:20.629Z,4.07
2022-10-11T14:00:28.107Z,4.08
2022-10-11T14:10:38.632Z,3.61
2022-10-11T14:20:34.918Z,3.54
2022-10-11T14:30:42.407Z,3.9
2022-10-11T14:40:50.247Z,4.19
2022-10-11T14:50:57.783Z,3.78
2022-10-11T15:01:05.351Z,3.78
2022-10-11T15:11:13.106Z,3.64
2022-10-11T15:21:21.139Z,3.99
2022-10-11T15:31:28.556Z,3.87
2022-10-11T15:41:36.016Z,3.79
2022-10-11T15:51:43.869Z,4.16
2022-10-11T16:01:52.816Z,3.94
2022-10-11T16:11:59.318Z,4.33
2022-10-11T16:22:06.815Z,4.24
2022-10-11T16:32:14.315Z,4.32
2022-10-11T16:42:21.833Z,4.51
2022-10-11T16:52:29.327Z,4.37
2022-10-11T17:02:35.278Z,4.72
2022-10-11T17:12:44.431Z,4.88
2022-10-11T17:22:49.786Z,4.78
2022-10-11T17:32:57.141Z,5.14
2022-10-11T17:43:04.622Z,4.89
2022-10-11T17:53:12.062Z,5.77
2022-10-11T18:03:19.560Z,6
2022-10-11T18:13:27.128Z,5.78
2022-10-11T18:23:35.878Z,6.77
2022-10-11T18:33:43.440Z,7.19
2022-10-11T18:43:51.087Z,7.62
2022-10-11T18:54:00.611Z,7.63
2022-10-11T19:04:07.572Z,8.41
2022-10-11T19:14:15.847Z,7.25
2022-10-11T19:24:27.488Z,5.91
2022-10-11T19:34:25.134Z,5.29
2022-10-11T19:44:34.502Z,5.32
2022-10-11T19:54:39.959Z,5.29
2022-10-11T20:04:52.308Z,6.03
2022-10-11T20:14:53.809Z,7.7
2022-10-11T20:25:01.284Z,6.73
2022-10-11T20:35:08.838Z,8.09
2022-10-11T20:45:16.445Z,11.69
2022-10-11T20:55:23.898Z,11.32
2022-10-11T21:05:31.404Z,10.66
2022-10-11T21:15:40.323Z,7.6
2022-10-11T21:25:46.935Z,6.18
2022-10-11T21:35:55.635Z,7.77
2022-10-11T21:46:04.214Z,9.26
2022-10-11T21:56:13.675Z,8.99
2022-10-11T22:06:21.129Z,10.37
2022-10-11T22:16:28.807Z,16.05
2022-10-11T22:26:36.421Z,9.74
2022-10-11T22:36:45.419Z,10.15
2022-10-11T22:46:53.190Z,7.83
2022-10-11T22:57:00.720Z,10.32
2022-10-11T23:07:06.768Z,10.57
2022-10-11T23:17:15.493Z,12
2022-10-11T23:27:23.194Z,14.52
2022-10-11T23:37:30.562Z,11.83
2022-10-11T23:47:38.201Z,14.89
2022-10-11T23:57:45.645Z,15.48
